Time;durP1;ratioP1;P1;durP2;ratioP2;P2;SDS_P1;SDS_P2;PMS_P1;PMS_P2;Temp;Humidity;BMP_temperature;BMP_pressure;BME280_temperature;BME280_humidity;BME280_pressure;Samples;Min_cycle;Max_cycle;Signal;HPM_P1;HPM_P2
2023/06/15 00:01:51;;;;;;;441.07;303.17;;;;;;;;;;5000498;28;20272;-58
2023/06/15 00:04:17;;;;;;;441.43;304.00;;;;;;;;;;4999901;28;20279;-59
2023/06/15 00:06:43;;;;;;;442.57;299.70;;;;;;;;;;4999966;28;20741;-59
2023/06/15 00:09:08;;;;;;;328.77;233.70;;;;;;;;;;4998120;28;20885;-59
2023/06/15 00:11:34;;;;;;;329.60;230.43;;;;;;;;;;4999706;28;20030;-59
2023/06/15 00:13:59;;;;;;;442.00;297.47;;;;;;;;;;5000609;28;20540;-58
2023/06/15 00:16:31;;;;;;;441.00;293.20;;;;;;;;;;5001127;28;20314;-59
2023/06/15 00:18:57;;;;;;;443.87;299.63;;;;;;;;;;4998124;28;20069;-59
2023/06/15 00:21:23;;;;;;;440.30;295.60;;;;;;;;;;4999761;28;20256;-59
2023/06/15 00:23:49;;;;;;;330.10;228.50;;;;;;;;;;5000750;28;20116;-60
2023/06/15 00:26:14;;;;;;;325.73;217.80;;;;;;;;;;5000396;28;20299;-60
2023/06/15 00:28:43;;;;;;;441.43;301.03;;;;;;;;;;4973410;28;20085;-59
2023/06/15 00:31:09;;;;;;;441.40;296.13;;;;;;;;;;4989121;28;20321;-59
2023/06/15 00:33:34;;;;;;;445.77;306.50;;;;;;;;;;5000349;28;20042;-59
2023/06/15 00:36:00;;;;;;;436.70;283.73;;;;;;;;;;4999819;28;20041;-59
2023/06/15 00:38:25;;;;;;;437.40;281.87;;;;;;;;;;5001446;28;20587;-59
2023/06/15 00:40:54;;;;;;;438.70;284.93;;;;;;;;;;4996112;28;20507;-59
2023/06/15 00:43:19;;;;;;;326.63;213.27;;;;;;;;;;4999552;28;20277;-59
2023/06/15 00:45:45;;;;;;;436.50;274.07;;;;;;;;;;4999475;28;20033;-58
2023/06/15 00:48:11;;;;;;;323.77;211.37;;;;;;;;;;4999019;28;20082;-59
2023/06/15 00:50:38;;;;;;;324.93;210.63;;;;;;;;;;4998503;28;20145;-59
2023/06/15 00:53:05;;;;;;;324.57;211.87;;;;;;;;;;4998536;28;20699;-58
2023/06/15 00:55:31;;;;;;;324.13;208.97;;;;;;;;;;4998223;28;20293;-59
2023/06/15 00:57:57;;;;;;;434.60;278.63;;;;;;;;;;5000988;28;20339;-59
2023/06/15 01:00:23;;;;;;;437.47;283.63;;;;;;;;;;4981093;28;20664;-59
2023/06/15 01:02:50;;;;;;;436.43;275.10;;;;;;;;;;4998707;28;20224;-59
2023/06/15 01:05:20;;;;;;;434.87;275.77;;;;;;;;;;4998683;28;20157;-59
2023/06/15 01:07:47;;;;;;;437.63;285.50;;;;;;;;;;4998541;28;20308;-59
2023/06/15 01:10:13;;;;;;;434.90;283.13;;;;;;;;;;4999458;28;20281;-59
2023/06/15 01:12:40;;;;;;;321.87;209.63;;;;;;;;;;4999090;28;20265;-59
2023/06/15 01:15:09;;;;;;;433.43;275.63;;;;;;;;;;4998685;28;20360;-59
2023/06/15 01:17:37;;;;;;;433.87;273.77;;;;;;;;;;5000066;28;20368;-59
2023/06/15 01:20:05;;;;;;;319.70;200.30;;;;;;;;;;4999324;28;20728;-59
2023/06/15 01:22:49;;;;;;;433.80;274.20;;;;;;;;;;4973191;28;20799;-59
2023/06/15 01:25:29;;;;;;;435.80;272.05;;;;;;;;;;5000116;28;20292;-59
2023/06/15 01:27:59;;;;;;;432.53;271.10;;;;;;;;;;4999070;28;20068;-59
2023/06/15 01:30:27;;;;;;;322.57;205.33;;;;;;;;;;5000656;28;20277;-59
2023/06/15 01:32:53;;;;;;;432.37;269.13;;;;;;;;;;5002220;28;20276;-61
2023/06/15 01:35:18;;;;;;;319.87;205.53;;;;;;;;;;4986294;28;20277;-60
2023/06/15 01:37:44;;;;;;;433.87;277.13;;;;;;;;;;5004098;28;20350;-59
2023/06/15 01:40:10;;;;;;;433.03;274.60;;;;;;;;;;5004567;28;20041;-59
2023/06/15 01:42:35;;;;;;;431.83;271.30;;;;;;;;;;5003943;28;20038;-60
2023/06/15 01:45:01;;;;;;;429.67;261.63;;;;;;;;;;4985289;28;20644;-59
2023/06/15 01:47:27;;;;;;;431.67;264.97;;;;;;;;;;5003797;28;20042;-60
2023/06/15 01:49:52;;;;;;;429.90;251.30;;;;;;;;;;5004161;28;20125;-60
2023/06/15 01:52:18;;;;;;;429.20;263.60;;;;;;;;;;5002077;28;20030;-59
2023/06/15 01:54:43;;;;;;;428.70;255.23;;;;;;;;;;5004256;28;20026;-58
2023/06/15 01:57:10;;;;;;;317.30;192.03;;;;;;;;;;5001901;28;20112;-57
2023/06/15 01:59:36;;;;;;;429.17;256.60;;;;;;;;;;5000703;28;20061;-59
2023/06/15 02:02:01;;;;;;;429.17;254.43;;;;;;;;;;5002457;28;20760;-59
2023/06/15 02:04:27;;;;;;;428.43;258.63;;;;;;;;;;5002817;28;20044;-59
2023/06/15 02:06:57;;;;;;;430.03;251.87;;;;;;;;;;4985022;28;20069;-58
2023/06/15 02:09:23;;;;;;;426.43;249.37;;;;;;;;;;4999768;28;20399;-59
2023/06/15 02:11:48;;;;;;;430.60;265.73;;;;;;;;;;5002031;28;20285;-60
2023/06/15 02:14:17;;;;;;;428.80;255.77;;;;;;;;;;5000839;28;20093;-59
2023/06/15 02:16:43;;;;;;;428.80;258.30;;;;;;;;;;4992615;28;20245;-59
2023/06/15 02:19:08;;;;;;;316.13;184.37;;;;;;;;;;5003079;28;20324;-59
2023/06/15 02:21:34;;;;;;;424.80;243.67;;;;;;;;;;5002738;28;20034;-60
2023/06/15 02:23:59;;;;;;;318.40;195.20;;;;;;;;;;5000654;28;20049;-60
2023/06/15 02:26:25;;;;;;;316.83;190.37;;;;;;;;;;5001066;28;20097;-58
2023/06/15 02:28:51;;;;;;;426.27;252.50;;;;;;;;;;5001858;28;20050;-60
2023/06/15 02:31:17;;;;;;;426.70;255.57;;;;;;;;;;5002602;28;20291;-62
2023/06/15 02:33:42;;;;;;;316.30;193.27;;;;;;;;;;5003196;28;20485;-61
2023/06/15 02:36:07;;;;;;;427.73;254.13;;;;;;;;;;5001838;28;20034;-61
2023/06/15 02:38:33;;;;;;;420.57;239.63;;;;;;;;;;5002947;28;20566;-61
2023/06/15 02:40:58;;;;;;;426.53;254.27;;;;;;;;;;5003056;28;20481;-61
2023/06/15 02:43:25;;;;;;;313.40;187.07;;;;;;;;;;4975857;28;20119;-59
2023/06/15 02:45:50;;;;;;;425.63;257.77;;;;;;;;;;4999320;28;20284;-59
2023/06/15 02:48:16;;;;;;;423.73;241.77;;;;;;;;;;4984745;28;20564;-61
2023/06/15 02:50:42;;;;;;;318.37;194.30;;;;;;;;;;4999739;28;20034;-61
2023/06/15 02:53:15;;;;;;;420.93;238.23;;;;;;;;;;5000595;28;20045;-61
2023/06/15 02:55:41;;;;;;;314.60;189.83;;;;;;;;;;5000110;28;20526;-61
2023/06/15 02:58:07;;;;;;;423.47;249.70;;;;;;;;;;4987213;28;20601;-58
2023/06/15 03:00:46;;;;;;;310.23;171.27;;;;;;;;;;4985341;28;20339;-59
2023/06/15 03:03:22;;;;;;;422.95;238.38;;;;;;;;;;4984649;28;20301;-59
2023/06/15 03:05:51;;;;;;;420.73;239.43;;;;;;;;;;4984011;28;20050;-61
2023/06/15 03:08:18;;;;;;;421.25;234.55;;;;;;;;;;4983979;28;20328;-59
2023/06/15 03:10:53;;;;;;;313.07;177.53;;;;;;;;;;4983996;28;20110;-60
2023/06/15 03:13:19;;;;;;;314.50;184.63;;;;;;;;;;4981311;28;20278;-60
2023/06/15 03:15:48;;;;;;;422.37;237.63;;;;;;;;;;4988062;28;20049;-60
2023/06/15 03:18:14;;;;;;;319.37;189.87;;;;;;;;;;4997135;28;20293;-60
2023/06/15 03:20:43;;;;;;;311.80;183.03;;;;;;;;;;4980123;28;20634;-61
2023/06/15 03:23:10;;;;;;;311.53;180.27;;;;;;;;;;4981504;28;20394;-71
2023/06/15 03:25:36;;;;;;;314.53;180.00;;;;;;;;;;4996812;28;20285;-64
2023/06/15 03:28:02;;;;;;;311.13;176.23;;;;;;;;;;4987857;28;20298;-63
2023/06/15 03:30:33;;;;;;;315.40;185.40;;;;;;;;;;4994945;28;20027;-59
2023/06/15 03:32:59;;;;;;;312.70;182.80;;;;;;;;;;4968361;28;20292;-60
2023/06/15 03:35:26;;;;;;;430.17;255.50;;;;;;;;;;4975144;28;20285;-59
2023/06/15 03:37:52;;;;;;;312.23;178.27;;;;;;;;;;4980827;28;20323;-59
2023/06/15 03:40:18;;;;;;;321.43;213.23;;;;;;;;;;4981294;28;20377;-60
2023/06/15 03:42:44;;;;;;;315.50;196.80;;;;;;;;;;4981288;28;20319;-60
2023/06/15 03:45:10;;;;;;;423.60;250.00;;;;;;;;;;4996035;28;20070;-60
2023/06/15 03:47:36;;;;;;;311.53;179.27;;;;;;;;;;4969686;28;20856;-60
2023/06/15 03:50:01;;;;;;;310.33;180.63;;;;;;;;;;4981277;28;20053;-60
2023/06/15 03:52:32;;;;;;;312.87;186.80;;;;;;;;;;4980569;28;20620;-60
2023/06/15 03:54:58;;;;;;;425.17;254.13;;;;;;;;;;4995477;28;20274;-60
2023/06/15 03:57:24;;;;;;;420.13;247.37;;;;;;;;;;4979215;28;20289;-60
2023/06/15 03:59:50;;;;;;;427.03;265.13;;;;;;;;;;4978846;28;20352;-60
2023/06/15 04:02:16;;;;;;;428.77;263.80;;;;;;;;;;4981579;28;20035;-61
2023/06/15 04:04:42;;;;;;;317.97;198.63;;;;;;;;;;4979887;28;20042;-60
2023/06/15 04:07:09;;;;;;;434.03;276.77;;;;;;;;;;4998277;28;20475;-60
2023/06/15 04:09:35;;;;;;;431.67;273.90;;;;;;;;;;4984004;28;20049;-60
2023/06/15 04:12:01;;;;;;;434.57;274.53;;;;;;;;;;4985971;28;21039;-60
2023/06/15 04:14:26;;;;;;;436.83;281.97;;;;;;;;;;4982952;28;20285;-60
2023/06/15 04:16:52;;;;;;;436.93;285.20;;;;;;;;;;4998532;28;20523;-60
2023/06/15 04:19:22;;;;;;;435.27;282.27;;;;;;;;;;4982781;28;20424;-59
2023/06/15 04:21:49;;;;;;;441.40;295.73;;;;;;;;;;4967958;28;20030;-59
2023/06/15 04:24:16;;;;;;;442.30;305.60;;;;;;;;;;4982915;28;20883;-60
2023/06/15 04:26:42;;;;;;;439.27;304.03;;;;;;;;;;5000833;28;20569;-59
2023/06/15 04:29:08;;;;;;;328.40;235.57;;;;;;;;;;4998961;28;20046;-60
2023/06/15 04:31:33;;;;;;;444.50;311.80;;;;;;;;;;4982649;28;20034;-60
2023/06/15 04:34:00;;;;;;;438.97;298.53;;;;;;;;;;4983748;28;20608;-61
2023/06/15 04:36:31;;;;;;;441.30;309.30;;;;;;;;;;4982433;28;20299;-60
2023/06/15 04:38:59;;;;;;;444.83;323.50;;;;;;;;;;5001072;28;20291;-60
2023/06/15 04:41:27;;;;;;;442.53;315.83;;;;;;;;;;4998409;28;20763;-60
2023/06/15 04:43:59;;;;;;;438.23;298.60;;;;;;;;;;5001351;28;20342;-60
2023/06/15 04:46:24;;;;;;;329.17;231.77;;;;;;;;;;4996867;28;20687;-60
2023/06/15 04:48:50;;;;;;;325.93;231.83;;;;;;;;;;4998754;28;20342;-61
2023/06/15 04:51:16;;;;;;;328.47;236.87;;;;;;;;;;4997334;28;20029;-63
2023/06/15 04:53:42;;;;;;;440.93;314.00;;;;;;;;;;4983002;28;20284;-61
2023/06/15 04:56:08;;;;;;;443.77;311.53;;;;;;;;;;4982786;28;20389;-63
2023/06/15 04:58:34;;;;;;;330.03;250.53;;;;;;;;;;4973884;28;20041;-61
2023/06/15 05:01:00;;;;;;;440.10;311.40;;;;;;;;;;4984479;28;20469;-60
2023/06/15 05:03:25;;;;;;;441.47;318.00;;;;;;;;;;4998090;28;20124;-60
2023/06/15 05:05:51;;;;;;;440.67;324.37;;;;;;;;;;4991676;28;20579;-61
2023/06/15 05:08:16;;;;;;;441.63;321.67;;;;;;;;;;4995657;28;20045;-62
2023/06/15 05:10:43;;;;;;;324.30;236.70;;;;;;;;;;4979348;28;20417;-60
2023/06/15 05:13:09;;;;;;;443.70;336.63;;;;;;;;;;4981656;28;20305;-61
2023/06/15 05:15:35;;;;;;;326.83;245.70;;;;;;;;;;4982231;28;20355;-60
2023/06/15 05:18:01;;;;;;;324.80;247.00;;;;;;;;;;4982921;28;20305;-61
2023/06/15 05:20:27;;;;;;;452.47;349.93;;;;;;;;;;4978457;28;20066;-61
2023/06/15 05:22:52;;;;;;;443.87;340.13;;;;;;;;;;4979968;28;20125;-61
2023/06/15 05:25:21;;;;;;;331.57;266.43;;;;;;;;;;4977877;28;20042;-62
2023/06/15 05:27:47;;;;;;;448.10;357.27;;;;;;;;;;4994164;28;20051;-61
2023/06/15 05:30:13;;;;;;;447.00;358.63;;;;;;;;;;4979853;28;20281;-61
2023/06/15 05:32:39;;;;;;;443.77;358.43;;;;;;;;;;4978515;28;20700;-61
2023/06/15 05:35:08;;;;;;;449.53;372.53;;;;;;;;;;4985732;28;20061;-61
2023/06/15 05:37:34;;;;;;;447.90;369.80;;;;;;;;;;4994753;28;20289;-62
2023/06/15 05:40:00;;;;;;;449.60;377.53;;;;;;;;;;4970313;28;20301;-61
2023/06/15 05:42:26;;;;;;;451.90;380.77;;;;;;;;;;4978195;28;20819;-62
2023/06/15 05:44:52;;;;;;;448.47;376.00;;;;;;;;;;4983423;28;20289;-61
2023/06/15 05:47:17;;;;;;;447.43;369.33;;;;;;;;;;4994866;28;20134;-61
2023/06/15 05:49:43;;;;;;;332.97;293.67;;;;;;;;;;4963659;28;20542;-62
2023/06/15 05:52:10;;;;;;;451.60;397.03;;;;;;;;;;4963007;28;20041;-62
2023/06/15 05:54:36;;;;;;;452.70;397.33;;;;;;;;;;4980885;28;20278;-62
2023/06/15 05:57:02;;;;;;;451.17;399.70;;;;;;;;;;4977175;28;20298;-61
2023/06/15 05:59:28;;;;;;;457.90;407.73;;;;;;;;;;4969344;28;20042;-61
2023/06/15 06:01:54;;;;;;;452.43;396.00;;;;;;;;;;4994212;28;20297;-61
2023/06/15 06:04:20;;;;;;;349.23;312.03;;;;;;;;;;4978155;28;20058;-61
2023/06/15 06:06:48;;;;;;;348.27;311.10;;;;;;;;;;4979202;28;20050;-61
2023/06/15 06:09:14;;;;;;;479.40;428.47;;;;;;;;;;4980636;28;20042;-62
2023/06/15 06:11:39;;;;;;;348.70;311.60;;;;;;;;;;4979765;28;20288;-62
2023/06/15 06:14:05;;;;;;;474.20;423.80;;;;;;;;;;4977349;28;20500;-62
2023/06/15 06:16:31;;;;;;;488.73;437.97;;;;;;;;;;4992968;28;20074;-62
2023/06/15 06:18:57;;;;;;;500.77;449.70;;;;;;;;;;4981133;28;20281;-62
2023/06/15 06:21:22;;;;;;;487.13;436.33;;;;;;;;;;4981410;28;20149;-62
2023/06/15 06:23:49;;;;;;;501.93;450.80;;;;;;;;;;4983175;28;20105;-62
2023/06/15 06:26:14;;;;;;;508.00;456.90;;;;;;;;;;4981093;28;20102;-62
2023/06/15 06:28:40;;;;;;;507.37;456.10;;;;;;;;;;4981832;28;20304;-62
2023/06/15 06:31:05;;;;;;;515.47;464.07;;;;;;;;;;4982182;28;20041;-62
2023/06/15 06:33:31;;;;;;;508.33;457.13;;;;;;;;;;4981890;28;20129;-62
2023/06/15 06:35:57;;;;;;;517.40;465.97;;;;;;;;;;4982436;28;20153;-62
2023/06/15 06:38:22;;;;;;;523.60;472.07;;;;;;;;;;4982519;28;20042;-62
2023/06/15 06:40:48;;;;;;;537.47;485.73;;;;;;;;;;4982588;28;20117;-62
2023/06/15 06:43:13;;;;;;;520.50;468.80;;;;;;;;;;4982209;28;20086;-61
2023/06/15 06:45:39;;;;;;;544.77;492.70;;;;;;;;;;4978951;28;20352;-62
2023/06/15 06:48:05;;;;;;;543.70;491.73;;;;;;;;;;4979963;28;20380;-61
2023/06/15 06:50:30;;;;;;;532.57;480.50;;;;;;;;;;4979352;28;20474;-61
2023/06/15 06:52:56;;;;;;;546.27;494.17;;;;;;;;;;4977880;28;20069;-62
2023/06/15 06:55:22;;;;;;;414.70;376.03;;;;;;;;;;4978761;28;20042;-61
2023/06/15 06:57:48;;;;;;;577.17;524.37;;;;;;;;;;4979031;28;20045;-62
2023/06/15 07:00:14;;;;;;;559.50;507.07;;;;;;;;;;4979877;28;20138;-62
2023/06/15 07:02:39;;;;;;;577.10;524.40;;;;;;;;;;4978952;28;20093;-61
2023/06/15 07:05:05;;;;;;;582.97;530.23;;;;;;;;;;4982560;28;20034;-61
2023/06/15 07:07:30;;;;;;;562.70;509.97;;;;;;;;;;5001827;28;20648;-59
2023/06/15 07:09:56;;;;;;;580.30;527.27;;;;;;;;;;5001782;28;20045;-63
2023/06/15 07:12:21;;;;;;;579.50;526.60;;;;;;;;;;5002138;28;20103;-62
2023/06/15 07:14:47;;;;;;;605.40;551.57;;;;;;;;;;5000598;28;20038;-63
2023/06/15 07:17:12;;;;;;;607.87;554.17;;;;;;;;;;5001128;28;20099;-61
2023/06/15 07:19:38;;;;;;;594.97;541.77;;;;;;;;;;5001605;28;20048;-61
2023/06/15 07:22:04;;;;;;;621.17;567.40;;;;;;;;;;5002747;28;20117;-62
2023/06/15 07:24:29;;;;;;;613.13;559.47;;;;;;;;;;4975940;28;20037;-62
2023/06/15 07:26:56;;;;;;;607.37;554.10;;;;;;;;;;5000996;28;20041;-62
2023/06/15 07:29:22;;;;;;;614.63;561.00;;;;;;;;;;5001417;28;20049;-62
2023/06/15 07:31:47;;;;;;;620.57;567.07;;;;;;;;;;5000961;28;20959;-62
2023/06/15 07:34:13;;;;;;;604.97;551.53;;;;;;;;;;5000765;28;20095;-62
2023/06/15 07:36:38;;;;;;;613.57;560.20;;;;;;;;;;5000949;28;20045;-63
2023/06/15 07:39:04;;;;;;;625.67;571.63;;;;;;;;;;5001234;28;20108;-61
2023/06/15 07:41:30;;;;;;;619.83;566.27;;;;;;;;;;5000079;28;20358;-62
2023/06/15 07:43:55;;;;;;;609.47;556.27;;;;;;;;;;5000609;28;20610;-62
2023/06/15 07:46:20;;;;;;;621.07;567.40;;;;;;;;;;4999596;28;20060;-61
2023/06/15 07:48:46;;;;;;;604.17;550.60;;;;;;;;;;4998245;28;20366;-62
2023/06/15 07:51:12;;;;;;;625.70;572.03;;;;;;;;;;5001106;28;20037;-62
2023/06/15 07:53:38;;;;;;;627.40;573.60;;;;;;;;;;4999237;28;20045;-62
2023/06/15 07:56:04;;;;;;;628.87;575.07;;;;;;;;;;5005531;28;20034;-62
2023/06/15 07:58:29;;;;;;;627.00;573.40;;;;;;;;;;5003104;28;20048;-62
2023/06/15 08:00:55;;;;;;;626.53;573.13;;;;;;;;;;5000586;28;20072;-62
2023/06/15 08:03:20;;;;;;;624.20;570.77;;;;;;;;;;5001927;28;20713;-62
2023/06/15 08:05:46;;;;;;;642.57;588.50;;;;;;;;;;5001179;28;20653;-62
2023/06/15 08:08:11;;;;;;;639.53;585.47;;;;;;;;;;4998562;28;20728;-62
2023/06/15 08:10:37;;;;;;;618.37;565.13;;;;;;;;;;4999946;28;20046;-63
2023/06/15 08:13:03;;;;;;;644.87;591.00;;;;;;;;;;4998537;28;20037;-63
2023/06/15 08:15:28;;;;;;;626.00;572.33;;;;;;;;;;5000177;28;20057;-62
2023/06/15 08:17:54;;;;;;;642.00;588.23;;;;;;;;;;5001646;28;20041;-63
2023/06/15 08:20:21;;;;;;;639.60;585.80;;;;;;;;;;4999317;28;20036;-62
2023/06/15 08:22:46;;;;;;;662.97;608.57;;;;;;;;;;4999970;28;20073;-62
2023/06/15 08:25:12;;;;;;;657.73;603.07;;;;;;;;;;5000891;28;20188;-63
2023/06/15 08:27:38;;;;;;;664.10;609.90;;;;;;;;;;4999346;28;20042;-62
2023/06/15 08:30:04;;;;;;;655.53;601.47;;;;;;;;;;4999838;28;20050;-67
2023/06/15 08:32:29;;;;;;;648.07;594.10;;;;;;;;;;5000090;28;20026;-63
2023/06/15 08:34:55;;;;;;;657.73;603.23;;;;;;;;;;4999554;28;20458;-61
2023/06/15 08:37:21;;;;;;;646.37;592.30;;;;;;;;;;4999543;28;20057;-61
2023/06/15 08:39:46;;;;;;;671.53;617.03;;;;;;;;;;4999224;28;20034;-61
2023/06/15 08:42:12;;;;;;;681.40;626.67;;;;;;;;;;4998129;28;20041;-61
2023/06/15 08:44:38;;;;;;;696.63;641.57;;;;;;;;;;4997393;28;20136;-62
2023/06/15 08:47:05;;;;;;;677.70;623.17;;;;;;;;;;4999544;28;20080;-62
2023/06/15 08:49:31;;;;;;;687.80;633.07;;;;;;;;;;4999211;28;20104;-62
2023/06/15 08:51:58;;;;;;;691.07;636.03;;;;;;;;;;4981764;28;20119;-62
2023/06/15 08:54:28;;;;;;;689.17;634.10;;;;;;;;;;4999212;28;20058;-61
2023/06/15 08:56:55;;;;;;;704.10;648.47;;;;;;;;;;4998787;28;20556;-62
2023/06/15 08:59:21;;;;;;;725.57;670.07;;;;;;;;;;4998051;28;20045;-62
2023/06/15 09:01:47;;;;;;;724.63;668.83;;;;;;;;;;4999330;28;20202;-62
2023/06/15 09:04:13;;;;;;;737.63;681.90;;;;;;;;;;4985816;28;20099;-62
2023/06/15 09:06:38;;;;;;;741.47;685.10;;;;;;;;;;4999093;28;20305;-61
2023/06/15 09:09:04;;;;;;;740.87;684.73;;;;;;;;;;4999003;28;20049;-62
2023/06/15 09:11:37;;;;;;;762.57;706.17;;;;;;;;;;4998806;28;20038;-62
2023/06/15 09:14:07;;;;;;;762.63;706.43;;;;;;;;;;4999847;28;20902;-62
2023/06/15 09:16:32;;;;;;;758.33;702.10;;;;;;;;;;4998988;28;20057;-62
2023/06/15 09:18:58;;;;;;;767.90;711.17;;;;;;;;;;4998770;28;20134;-62
2023/06/15 09:21:25;;;;;;;738.13;682.47;;;;;;;;;;4999154;28;20042;-62
2023/06/15 09:23:51;;;;;;;737.80;682.00;;;;;;;;;;4999230;28;20061;-62
2023/06/15 09:26:20;;;;;;;732.50;676.87;;;;;;;;;;5000522;28;20385;-65
2023/06/15 09:28:45;;;;;;;729.60;673.80;;;;;;;;;;4999526;28;20052;-62
2023/06/15 09:31:11;;;;;;;720.50;665.00;;;;;;;;;;4983289;28;20404;-62
2023/06/15 09:33:37;;;;;;;721.90;666.40;;;;;;;;;;4982835;28;20690;-62
2023/06/15 09:36:05;;;;;;;702.33;647.47;;;;;;;;;;5000857;28;20038;-62
2023/06/15 09:38:32;;;;;;;716.37;660.87;;;;;;;;;;5000842;28;20144;-62
2023/06/15 09:41:04;;;;;;;709.00;653.77;;;;;;;;;;4999414;28;20096;-63
2023/06/15 09:43:33;;;;;;;706.57;651.63;;;;;;;;;;5000443;28;20453;-62
2023/06/15 09:46:00;;;;;;;713.33;657.97;;;;;;;;;;5000320;28;20042;-63
2023/06/15 09:48:25;;;;;;;727.40;672.03;;;;;;;;;;5000333;28;20046;-63
2023/06/15 09:50:51;;;;;;;728.30;672.80;;;;;;;;;;4999164;28;20050;-62
2023/06/15 09:53:18;;;;;;;734.50;678.73;;;;;;;;;;5001159;28;20033;-62
2023/06/15 09:55:45;;;;;;;715.40;660.03;;;;;;;;;;5001559;28;20060;-63
2023/06/15 09:58:11;;;;;;;731.97;675.97;;;;;;;;;;5002243;28;20447;-63
2023/06/15 10:00:36;;;;;;;728.83;672.93;;;;;;;;;;4975747;28;20289;-61
2023/06/15 10:03:03;;;;;;;713.13;658.07;;;;;;;;;;5002864;28;20037;-63
2023/06/15 10:05:33;;;;;;;714.57;659.37;;;;;;;;;;5001788;28;20509;-63
2023/06/15 10:08:02;;;;;;;745.37;688.93;;;;;;;;;;4995606;28;20034;-63
2023/06/15 10:10:29;;;;;;;734.80;678.93;;;;;;;;;;4997476;28;20029;-63
2023/06/15 10:12:57;;;;;;;741.07;685.30;;;;;;;;;;4999164;28;20033;-63
2023/06/15 10:15:23;;;;;;;750.77;694.67;;;;;;;;;;4983293;28;20034;-64
2023/06/15 10:17:52;;;;;;;738.83;683.27;;;;;;;;;;5002751;28;20096;-65
2023/06/15 10:20:18;;;;;;;765.30;708.90;;;;;;;;;;5003236;28;20034;-65
2023/06/15 10:22:57;;;;;;;768.80;712.33;;;;;;;;;;4986057;28;20042;-65
2023/06/15 10:25:23;;;;;;;761.77;705.23;;;;;;;;;;5001880;28;20026;-64
2023/06/15 10:27:49;;;;;;;763.63;707.37;;;;;;;;;;5004293;28;20038;-65
2023/06/15 10:30:20;;;;;;;740.77;684.73;;;;;;;;;;5003428;28;20072;-65
2023/06/15 10:32:53;;;;;;;744.70;688.93;;;;;;;;;;5004243;28;20116;-65
2023/06/15 10:35:18;;;;;;;731.40;675.77;;;;;;;;;;5002805;28;20042;-65
2023/06/15 10:37:48;;;;;;;739.33;683.43;;;;;;;;;;5004591;28;20137;-65
2023/06/15 10:40:18;;;;;;;745.17;689.43;;;;;;;;;;5004695;28;20125;-65
2023/06/15 10:42:44;;;;;;;736.37;680.60;;;;;;;;;;5002360;28;20061;-65
2023/06/15 10:45:26;;;;;;;732.13;676.57;;;;;;;;;;5002748;28;20481;-66
2023/06/15 10:47:51;;;;;;;743.13;687.27;;;;;;;;;;5004605;28;20516;-64
2023/06/15 10:50:18;;;;;;;729.20;673.53;;;;;;;;;;5002324;28;20080;-63
2023/06/15 10:52:43;;;;;;;729.23;673.87;;;;;;;;;;5004767;28;20054;-63
2023/06/15 10:55:14;;;;;;;737.93;682.30;;;;;;;;;;4995199;28;20144;-63
2023/06/15 10:57:40;;;;;;;728.23;672.90;;;;;;;;;;5005435;28;20139;-67
2023/06/15 11:00:07;;;;;;;752.50;696.60;;;;;;;;;;5005065;28;20026;-64
2023/06/15 11:02:32;;;;;;;745.10;689.27;;;;;;;;;;4986199;28;20033;-63
2023/06/15 11:05:10;;;;;;;747.93;691.67;;;;;;;;;;5000897;28;20048;-63
2023/06/15 11:07:38;;;;;;;763.20;706.63;;;;;;;;;;5005038;28;20049;-63
2023/06/15 11:10:14;;;;;;;766.67;710.57;;;;;;;;;;5004022;28;20046;-63
2023/06/15 11:12:41;;;;;;;770.57;714.13;;;;;;;;;;5003646;28;20630;-63
2023/06/15 11:15:08;;;;;;;780.87;724.13;;;;;;;;;;5001297;28;20088;-63
2023/06/15 11:17:53;;;;;;;789.63;732.70;;;;;;;;;;5001089;28;20438;-64
2023/06/15 11:20:44;;;;;;;790.50;733.00;;;;;;;;;;5003154;28;20030;-63
2023/06/15 11:23:16;;;;;;;809.17;751.50;;;;;;;;;;4985543;28;20076;-63
2023/06/15 11:25:46;;;;;;;796.77;739.40;;;;;;;;;;5000735;28;20050;-64
2023/06/15 11:28:15;;;;;;;793.17;735.97;;;;;;;;;;5002803;28;20133;-64
2023/06/15 11:30:41;;;;;;;779.97;723.47;;;;;;;;;;5002537;28;20136;-63
2023/06/15 11:33:10;;;;;;;788.77;731.73;;;;;;;;;;4986309;28;20040;-63
2023/06/15 11:35:36;;;;;;;783.23;726.33;;;;;;;;;;5002060;28;20428;-63
2023/06/15 11:38:02;;;;;;;787.63;730.60;;;;;;;;;;5002461;28;20038;-63
2023/06/15 11:40:27;;;;;;;772.43;715.87;;;;;;;;;;5002003;28;20042;-64
2023/06/15 11:42:57;;;;;;;772.53;716.20;;;;;;;;;;5002980;28;20046;-64
2023/06/15 11:45:23;;;;;;;760.73;704.53;;;;;;;;;;5001185;28;20200;-64
2023/06/15 11:47:49;;;;;;;770.13;713.03;;;;;;;;;;5002969;28;20037;-64
2023/06/15 11:50:19;;;;;;;749.30;693.17;;;;;;;;;;4974507;28;20482;-63
2023/06/15 11:52:45;;;;;;;747.93;691.87;;;;;;;;;;4999968;28;20036;-65
2023/06/15 11:55:11;;;;;;;751.87;695.60;;;;;;;;;;4989600;28;20038;-65
2023/06/15 11:57:37;;;;;;;766.37;709.87;;;;;;;;;;4999105;28;20033;-65
2023/06/15 12:00:07;;;;;;;757.57;701.33;;;;;;;;;;5001383;28;20046;-65
2023/06/15 12:02:39;;;;;;;755.00;698.67;;;;;;;;;;5000080;28;20045;-64
2023/06/15 12:05:04;;;;;;;758.50;702.10;;;;;;;;;;5001299;28;20068;-65
2023/06/15 12:07:34;;;;;;;754.57;698.37;;;;;;;;;;4998056;28;20116;-64
2023/06/15 12:10:00;;;;;;;774.60;718.13;;;;;;;;;;5001445;28;20050;-64
2023/06/15 12:12:30;;;;;;;779.60;723.13;;;;;;;;;;5000903;28;20034;-63
2023/06/15 12:14:56;;;;;;;782.20;725.47;;;;;;;;;;5000618;28;20038;-63
2023/06/15 12:17:31;;;;;;;787.93;731.13;;;;;;;;;;5000869;28;20034;-62
2023/06/15 12:19:57;;;;;;;804.00;746.83;;;;;;;;;;5002089;28;20129;-61
2023/06/15 12:22:31;;;;;;;799.73;742.53;;;;;;;;;;4999448;28;20038;-62
2023/06/15 12:24:58;;;;;;;794.72;737.80;;;;;;;;;;5001918;28;20036;-62
2023/06/15 12:27:24;;;;;;;816.70;758.90;;;;;;;;;;5001105;28;20137;-62
2023/06/15 12:29:53;;;;;;;893.07;833.17;;;;;;;;;;5001262;28;20440;-62
2023/06/15 12:32:24;;;;;;;845.73;785.40;;;;;;;;;;5001057;28;20041;-62
2023/06/15 12:34:51;;;;;;;840.07;781.63;;;;;;;;;;5001437;28;20044;-61
2023/06/15 12:37:16;;;;;;;837.37;778.63;;;;;;;;;;5001003;28;20496;-61
2023/06/15 12:39:43;;;;;;;831.87;774.07;;;;;;;;;;5001723;28;20573;-61
2023/06/15 12:42:09;;;;;;;814.27;756.60;;;;;;;;;;5000667;28;20037;-61
2023/06/15 12:44:34;;;;;;;832.07;773.97;;;;;;;;;;5001220;28;20042;-62
2023/06/15 12:47:00;;;;;;;820.30;762.53;;;;;;;;;;5000130;28;20068;-62
2023/06/15 12:49:25;;;;;;;822.00;764.40;;;;;;;;;;5000886;28;20042;-63
2023/06/15 12:51:51;;;;;;;828.83;770.73;;;;;;;;;;5000319;28;20045;-63
2023/06/15 12:54:16;;;;;;;816.27;758.67;;;;;;;;;;4994929;28;20500;-63
2023/06/15 12:56:42;;;;;;;838.60;780.43;;;;;;;;;;4990358;28;20034;-61
2023/06/15 12:59:07;;;;;;;826.70;768.67;;;;;;;;;;4998808;28;20045;-63
2023/06/15 13:01:33;;;;;;;835.00;777.07;;;;;;;;;;4998239;28;20064;-63
2023/06/15 13:03:59;;;;;;;837.10;779.10;;;;;;;;;;5000379;28;20021;-63
2023/06/15 13:06:24;;;;;;;843.30;785.30;;;;;;;;;;4980912;28;20050;-64
2023/06/15 13:08:51;;;;;;;830.30;772.43;;;;;;;;;;4981810;28;20038;-63
2023/06/15 13:11:16;;;;;;;819.30;761.53;;;;;;;;;;4979817;28;20061;-63
2023/06/15 13:13:42;;;;;;;829.00;771.03;;;;;;;;;;4980832;28;20327;-63
2023/06/15 13:16:07;;;;;;;829.77;772.00;;;;;;;;;;4979993;28;20104;-63
2023/06/15 13:18:33;;;;;;;819.77;762.17;;;;;;;;;;4971135;28;20903;-63
2023/06/15 13:20:58;;;;;;;814.53;757.23;;;;;;;;;;4966894;28;20046;-63
2023/06/15 13:23:24;;;;;;;824.93;766.83;;;;;;;;;;4972977;28;20062;-63
2023/06/15 13:25:50;;;;;;;835.80;777.70;;;;;;;;;;4977658;28;20034;-63
2023/06/15 13:28:15;;;;;;;832.43;774.47;;;;;;;;;;4982332;28;20077;-64
2023/06/15 13:30:41;;;;;;;828.97;770.93;;;;;;;;;;4983584;28;20494;-64
2023/06/15 13:33:06;;;;;;;855.83;796.23;;;;;;;;;;4983786;28;20026;-63
2023/06/15 13:35:32;;;;;;;824.97;766.87;;;;;;;;;;4982763;28;20053;-63
2023/06/15 13:38:00;;;;;;;831.20;773.33;;;;;;;;;;4983173;28;20034;-63
2023/06/15 13:40:26;;;;;;;830.77;773.17;;;;;;;;;;4982730;28;20084;-63
2023/06/15 13:42:51;;;;;;;835.80;778.03;;;;;;;;;;4983118;28;20042;-64
2023/06/15 13:45:18;;;;;;;847.00;788.70;;;;;;;;;;4982860;28;20062;-63
2023/06/15 13:47:45;;;;;;;844.70;786.43;;;;;;;;;;4973191;28;20049;-63
2023/06/15 13:50:12;;;;;;;869.33;810.53;;;;;;;;;;4983567;28;20189;-66